createdAt,value
2023-04-23T00:00:45.790Z,73.8
2023-04-23T00:02:02.073Z,72.9
2023-04-23T00:03:18.364Z,72.4
2023-04-23T00:04:34.663Z,72.1
2023-04-23T00:05:50.949Z,71.9
2023-04-23T00:07:07.248Z,71.3
2023-04-23T00:08:22.565Z,72
2023-04-23T00:09:37.868Z,72.1
2023-04-23T00:10:54.178Z,71
2023-04-23T00:12:10.419Z,71.6
2023-04-23T00:13:26.757Z,71.4
2023-04-23T00:14:43.047Z,71.5
2023-04-23T00:15:59.346Z,71.5
2023-04-23T00:17:14.657Z,71.8
2023-04-23T00:18:30.954Z,70.4
2023-04-23T00:19:47.243Z,69.5
2023-04-23T00:21:03.541Z,69.2
2023-04-23T00:22:19.845Z,69
2023-04-23T00:23:36.135Z,68.8
2023-04-23T00:24:52.376Z,68.8
2023-04-23T00:26:08.729Z,68.6
2023-04-23T00:27:25.019Z,68.6
2023-04-23T00:28:41.299Z,68.3
2023-04-23T00:29:57.593Z,68.6
2023-04-23T00:31:13.901Z,68.6
2023-04-23T00:32:30.189Z,68.5
2023-04-23T00:33:45.508Z,68.5
2023-04-23T00:35:01.794Z,68.3
2023-04-23T00:36:18.084Z,68.5
2023-04-23T00:37:34.390Z,68.8
2023-04-23T00:38:50.684Z,68.3
2023-04-23T00:40:06.967Z,68.6
2023-04-23T00:41:23.259Z,69
2023-04-23T00:42:39.552Z,69
2023-04-23T00:43:55.841Z,69
2023-04-23T00:45:12.148Z,69
2023-04-23T00:46:28.438Z,69.1
2023-04-23T00:49:01.021Z,69
2023-04-23T00:50:16.282Z,69
2023-04-23T00:51:32.640Z,69
2023-04-23T00:52:48.921Z,68.9
2023-04-23T00:54:05.215Z,69
2023-04-23T00:55:21.504Z,69
2023-04-23T00:56:37.811Z,69.2
2023-04-23T00:57:54.098Z,69.1
2023-04-23T00:59:10.384Z,69.2
2023-04-23T01:00:26.696Z,69.5
2023-04-23T01:01:42.983Z,69.2
2023-04-23T01:02:59.266Z,69.2
2023-04-23T01:04:15.580Z,69.3
2023-04-23T01:05:31.802Z,69.5
2023-04-23T01:06:47.173Z,69.4
2023-04-23T01:08:03.460Z,69.5
2023-04-23T01:09:19.766Z,69.4
2023-04-23T01:10:36.057Z,69.4
2023-04-23T01:11:52.346Z,69.7
2023-04-23T01:13:08.591Z,69.7
2023-04-23T01:14:24.928Z,69.7
2023-04-23T01:15:41.232Z,69.6
2023-04-23T01:16:57.531Z,70
2023-04-23T01:18:13.821Z,70.7
2023-04-23T01:19:30.112Z,70.5
2023-04-23T01:20:46.360Z,70.7
2023-04-23T01:22:02.705Z,71.2
2023-04-23T01:23:18.019Z,71.4
2023-04-23T01:24:34.308Z,72.4
2023-04-23T01:25:50.596Z,72
2023-04-23T01:27:06.900Z,72.1
2023-04-23T01:28:23.178Z,72.4
2023-04-23T01:29:39.480Z,73.2
2023-04-23T01:30:55.778Z,73.2
2023-04-23T01:32:12.058Z,73.3
2023-04-23T01:33:28.357Z,73.5
2023-04-23T01:34:44.664Z,74.2
2023-04-23T01:36:00.942Z,74.1
2023-04-23T01:37:17.234Z,74.3
2023-04-23T01:38:33.545Z,75
2023-04-23T01:39:48.845Z,74.8
2023-04-23T01:41:05.141Z,75
2023-04-23T01:42:21.432Z,75.4
2023-04-23T01:43:37.666Z,75.9
2023-04-23T01:44:54.024Z,75.7
2023-04-23T01:46:10.325Z,75.8
2023-04-23T01:47:26.603Z,76.5
2023-04-23T01:48:42.915Z,76.2
2023-04-23T01:49:59.207Z,76.2
2023-04-23T01:51:15.484Z,75.9
2023-04-23T01:52:31.795Z,75.8
2023-04-23T01:53:48.084Z,76.4
2023-04-23T01:55:04.373Z,76.1
2023-04-23T01:56:19.688Z,76.1
2023-04-23T01:57:35.979Z,76.3
2023-04-23T01:58:52.263Z,76.9
2023-04-23T02:00:08.563Z,76.9
2023-04-23T02:01:24.854Z,77.5
2023-04-23T02:02:41.155Z,77.5
2023-04-23T02:03:57.454Z,78
2023-04-23T02:05:13.739Z,78.7
2023-04-23T02:06:30.034Z,78.8
2023-04-23T02:07:46.333Z,79.3
2023-04-23T02:09:02.626Z,80.1
2023-04-23T02:10:18.859Z,82.6
2023-04-23T02:11:35.148Z,83.2
2023-04-23T02:12:50.470Z,82.9
2023-04-23T02:14:06.764Z,83.3
2023-04-23T02:15:23.063Z,84
2023-04-23T02:16:39.345Z,84.5
2023-04-23T02:17:55.650Z,85
2023-04-23T02:20:28.241Z,83.6
2023-04-23T02:21:44.536Z,82.3
2023-04-23T02:23:00.812Z,81.5
2023-04-23T02:24:17.122Z,81.2
2023-04-23T02:25:33.408Z,80.6
2023-04-23T02:26:49.708Z,80.4
2023-04-23T02:28:05.991Z,80.7
2023-04-23T02:29:21.298Z,81.1
2023-04-23T02:30:37.607Z,81.3
2023-04-23T02:31:53.889Z,81.7
2023-04-23T02:33:10.195Z,81.6
2023-04-23T02:34:26.479Z,81.1
2023-04-23T02:35:42.765Z,81.3
2023-04-23T02:36:59.064Z,81.7
2023-04-23T02:38:15.363Z,81.7
2023-04-23T02:39:31.650Z,81.2
2023-04-23T02:40:47.954Z,81.5
2023-04-23T02:42:04.251Z,81
2023-04-23T02:43:20.531Z,81.3
2023-04-23T02:44:36.823Z,81.1
2023-04-23T02:45:52.151Z,82.1
2023-04-23T02:47:08.431Z,81.3
2023-04-23T02:48:24.731Z,82
2023-04-23T02:49:41.013Z,81.2
2023-04-23T02:50:57.309Z,82.8
2023-04-23T02:52:13.603Z,82.6
2023-04-23T02:53:29.915Z,82.4
2023-04-23T02:54:46.206Z,82.8
2023-04-23T02:56:02.487Z,83.4
2023-04-23T02:57:18.791Z,83.5
2023-04-23T02:58:35.081Z,84
2023-04-23T02:59:51.369Z,84.1
2023-04-23T03:01:07.679Z,84.2
2023-04-23T03:02:22.974Z,84.5
2023-04-23T03:03:39.282Z,84.3
2023-04-23T03:04:55.571Z,84.3
2023-04-23T03:06:11.855Z,84.5
2023-04-23T03:07:28.146Z,85.4
2023-04-23T03:08:44.443Z,84.8
2023-04-23T03:10:00.738Z,84.7
2023-04-23T03:11:17.040Z,84.1
2023-04-23T03:12:33.325Z,83.6
2023-04-23T03:13:49.622Z,84.6
2023-04-23T03:15:05.922Z,85.4
2023-04-23T03:16:22.202Z,85.4
2023-04-23T03:17:38.501Z,85.4
2023-04-23T03:18:53.815Z,85.2
2023-04-23T03:20:10.111Z,85.4
2023-04-23T03:21:26.400Z,85
2023-04-23T03:22:42.690Z,84.6
2023-04-23T03:23:58.994Z,85.2
2023-04-23T03:25:15.275Z,84.5
2023-04-23T03:26:31.575Z,84.4
2023-04-23T03:27:47.829Z,84
2023-04-23T03:29:04.120Z,84.4
2023-04-23T03:30:20.401Z,84.6
2023-04-23T03:31:36.649Z,84.8
2023-04-23T03:32:52.896Z,85.5
2023-04-23T03:34:09.195Z,85.7
2023-04-23T03:35:24.506Z,85.5
2023-04-23T03:36:40.750Z,85.3
2023-04-23T03:37:56.994Z,85.6
2023-04-23T03:39:13.236Z,85.2
2023-04-23T03:40:29.503Z,84.5
2023-04-23T03:41:45.726Z,84.9
2023-04-23T03:43:01.987Z,85.1
2023-04-23T03:44:18.224Z,85.4
2023-04-23T03:45:34.457Z,85.4
2023-04-23T03:46:50.688Z,85.1
2023-04-23T03:48:06.944Z,85.7
2023-04-23T03:49:23.176Z,85.9
2023-04-23T03:50:39.408Z,85.8
2023-04-23T03:51:54.668Z,85.7
2023-04-23T03:53:10.911Z,86.3
2023-04-23T03:54:27.152Z,85.6
2023-04-23T03:55:43.391Z,85.8
2023-04-23T03:56:59.630Z,85.8
2023-04-23T03:58:15.875Z,86
2023-04-23T03:59:32.116Z,85.9
2023-04-23T04:00:48.342Z,85.7
2023-04-23T04:02:04.594Z,86.7
2023-04-23T04:03:20.835Z,87.2
2023-04-23T04:04:37.070Z,87.4
2023-04-23T04:05:53.314Z,88
2023-04-23T04:07:09.541Z,88.4
2023-04-23T04:08:24.808Z,88.2
2023-04-23T04:09:41.043Z,86.7
2023-04-23T04:10:57.287Z,87.5
2023-04-23T04:12:13.526Z,87.4
2023-04-23T04:13:29.766Z,87.7
2023-04-23T04:14:46.009Z,88.1
2023-04-23T04:16:02.253Z,88.1
2023-04-23T04:17:18.495Z,88.3
2023-04-23T04:18:34.719Z,87.8
2023-04-23T04:19:50.978Z,88.2
2023-04-23T04:21:07.201Z,88.2
2023-04-23T04:22:23.445Z,88.1
2023-04-23T04:23:39.698Z,87.1
2023-04-23T04:24:56.053Z,86.7
2023-04-23T04:26:12.288Z,86.8
2023-04-23T04:27:28.532Z,86.2
2023-04-23T04:28:44.763Z,86.4
2023-04-23T04:30:01.013Z,86.1
2023-04-23T04:31:17.254Z,86.2
2023-04-23T04:32:32.519Z,86.6
2023-04-23T04:33:48.748Z,86.5
2023-04-23T04:35:04.996Z,86.9
2023-04-23T04:36:21.228Z,86.2
2023-04-23T04:37:37.479Z,85.8
2023-04-23T04:38:53.702Z,86.1
2023-04-23T04:40:09.943Z,86.8
2023-04-23T04:41:26.182Z,86.3
2023-04-23T04:42:42.429Z,86.2
2023-04-23T04:43:58.680Z,86
2023-04-23T04:45:14.918Z,86.3
2023-04-23T04:46:31.161Z,86.2
2023-04-23T04:47:47.399Z,86.2
2023-04-23T04:49:02.656Z,86.4
2023-04-23T04:50:18.882Z,86.3
2023-04-23T04:51:35.124Z,85.9
2023-04-23T04:52:51.356Z,85.7
2023-04-23T04:54:07.596Z,85.5
2023-04-23T04:55:23.850Z,85.3
2023-04-23T04:56:40.084Z,84.9
2023-04-23T04:57:56.328Z,84.5
2023-04-23T05:00:28.800Z,84.2
2023-04-23T05:01:45.045Z,84
2023-04-23T05:03:01.286Z,84.5
2023-04-23T05:04:17.521Z,84.5
2023-04-23T05:05:32.782Z,85.3
2023-04-23T05:06:49.033Z,85.3
2023-04-23T05:08:05.271Z,85.7
2023-04-23T05:09:21.511Z,85.5
2023-04-23T05:10:37.738Z,85.3
2023-04-23T05:11:53.984Z,85.3
2023-04-23T05:13:10.228Z,85.3
2023-04-23T05:14:26.460Z,85.5
2023-04-23T05:15:42.696Z,85.2
2023-04-23T05:16:58.952Z,85.3
2023-04-23T05:18:15.173Z,85.5
2023-04-23T05:19:31.416Z,85.4
2023-04-23T05:20:47.668Z,85.7
2023-04-23T05:22:02.914Z,86
2023-04-23T05:23:19.162Z,85.3
2023-04-23T05:24:35.387Z,85.3
2023-04-23T05:25:51.635Z,85.2
2023-04-23T05:27:07.871Z,85.2
2023-04-23T05:28:24.127Z,84.9
2023-04-23T05:29:40.354Z,86.1
2023-04-23T05:30:56.597Z,86
2023-04-23T05:32:12.832Z,86.5
2023-04-23T05:33:29.086Z,87.3
2023-04-23T05:34:45.317Z,86.4
2023-04-23T05:36:01.560Z,86.7
2023-04-23T05:37:17.796Z,87.8
2023-04-23T05:38:33.045Z,87.6
2023-04-23T05:39:49.304Z,87.7
2023-04-23T05:41:05.526Z,87.3
2023-04-23T05:42:21.778Z,87.3
2023-04-23T05:43:38.018Z,87.3
2023-04-23T05:46:10.497Z,87.1
2023-04-23T05:47:26.737Z,87.1
2023-04-23T05:48:42.978Z,87
2023-04-23T05:49:59.217Z,86.8
2023-04-23T05:51:15.465Z,86.4
2023-04-23T05:53:47.938Z,85.8
2023-04-23T05:55:04.171Z,85.8
2023-04-23T05:56:19.421Z,85.8
2023-04-23T05:57:35.662Z,85.2
2023-04-23T05:58:51.901Z,85.2
2023-04-23T06:01:24.398Z,85
2023-04-23T06:02:39.652Z,85
2023-04-23T06:03:54.902Z,85
2023-04-23T06:05:11.157Z,84.6
2023-04-23T06:06:27.397Z,84.9
2023-04-23T06:07:43.636Z,84.9
2023-04-23T06:08:59.861Z,84.8
2023-04-23T06:10:16.105Z,85
2023-04-23T06:11:32.339Z,84.7
2023-04-23T06:12:48.589Z,84.3
2023-04-23T06:14:04.832Z,83.8
2023-04-23T06:16:37.313Z,83.4
2023-04-23T06:17:53.558Z,83
2023-04-23T06:19:09.797Z,83.2
2023-04-23T06:20:26.027Z,83.1
2023-04-23T06:21:42.396Z,83.2
2023-04-23T06:24:14.860Z,82.9
2023-04-23T06:25:30.122Z,83.2
2023-04-23T06:26:46.499Z,82.8
2023-04-23T06:28:02.736Z,82.6
2023-04-23T06:29:18.982Z,82.8
2023-04-23T06:30:35.216Z,82.1
2023-04-23T06:31:51.446Z,82.3
2023-04-23T06:33:07.692Z,82.3
2023-04-23T06:34:23.929Z,82.5
2023-04-23T06:35:40.177Z,82.1
2023-04-23T06:36:56.412Z,82
2023-04-23T06:38:12.659Z,82.2
2023-04-23T06:39:27.919Z,82
2023-04-23T06:40:43.177Z,82.7
2023-04-23T06:41:59.418Z,82.5
2023-04-23T06:43:15.653Z,82.2
2023-04-23T06:44:31.898Z,81.6
2023-04-23T06:45:48.124Z,82.3
2023-04-23T06:47:04.366Z,81.7
2023-04-23T06:48:20.615Z,80.9
2023-04-23T06:49:36.843Z,81.1
2023-04-23T06:50:53.083Z,81.7
2023-04-23T06:52:09.319Z,80.8
2023-04-23T06:53:24.612Z,80.9
2023-04-23T06:54:39.835Z,81.5
2023-04-23T06:55:56.090Z,81.3
2023-04-23T06:57:12.317Z,81.5
2023-04-23T06:58:28.559Z,81.8
2023-04-23T06:59:44.809Z,82.1
2023-04-23T07:01:01.044Z,81.4
2023-04-23T07:02:17.290Z,81.7
2023-04-23T07:04:49.767Z,81.6
2023-04-23T07:06:06.004Z,81.9
2023-04-23T07:07:22.251Z,81.9
2023-04-23T07:09:54.734Z,81.2
2023-04-23T07:11:09.971Z,81.1
2023-04-23T07:12:25.240Z,81.2
2023-04-23T07:13:41.483Z,81.1
2023-04-23T07:14:57.731Z,81.1
2023-04-23T07:16:13.964Z,81.9
2023-04-23T07:17:30.191Z,80.7
2023-04-23T07:18:46.450Z,81.8
2023-04-23T07:20:02.671Z,82
2023-04-23T07:21:18.914Z,81.3
2023-04-23T07:22:35.161Z,81.5
2023-04-23T07:25:07.644Z,80.2
2023-04-23T07:26:23.879Z,80.5
2023-04-23T07:27:40.124Z,80.5
2023-04-23T07:28:55.381Z,80.9
2023-04-23T07:30:11.622Z,81
2023-04-23T07:31:27.862Z,80.5
2023-04-23T07:32:44.105Z,80.1
2023-04-23T07:34:00.340Z,80.2
2023-04-23T07:35:16.572Z,80.9
2023-04-23T07:36:32.809Z,81
2023-04-23T07:37:49.065Z,81
2023-04-23T07:39:04.323Z,81.5
2023-04-23T07:40:20.568Z,81.3
2023-04-23T07:41:35.812Z,80.8
2023-04-23T07:42:52.051Z,79.7
2023-04-23T07:44:08.289Z,79.4
2023-04-23T07:45:24.537Z,79.6
2023-04-23T07:47:57.022Z,79.7
2023-04-23T07:49:13.244Z,79.9
2023-04-23T07:50:29.488Z,80.4
2023-04-23T07:51:45.737Z,80.9
2023-04-23T07:53:01.973Z,80.9
2023-04-23T07:54:18.221Z,81.7
2023-04-23T07:55:34.460Z,82.5
2023-04-23T07:56:50.684Z,82.4
2023-04-23T07:58:05.942Z,82.6
2023-04-23T07:59:22.182Z,83.3
2023-04-23T08:00:38.421Z,84
2023-04-23T08:01:54.669Z,84
2023-04-23T08:03:10.902Z,84
2023-04-23T08:04:27.161Z,84.4
2023-04-23T08:05:43.387Z,84.3
2023-04-23T08:06:59.622Z,84.8
2023-04-23T08:08:15.868Z,85.1
2023-04-23T08:09:32.101Z,85.9
2023-04-23T08:10:48.349Z,85.4
2023-04-23T08:12:04.599Z,85.3
2023-04-23T08:13:20.827Z,85.6
2023-04-23T08:14:37.079Z,85
2023-04-23T08:15:52.332Z,85
2023-04-23T08:18:24.000Z,85.6
2023-04-23T08:19:41.048Z,85.7
2023-04-23T08:20:57.279Z,86
2023-04-23T08:22:13.535Z,85.9
2023-04-23T08:23:29.775Z,85.4
2023-04-23T08:24:46.012Z,85
2023-04-23T08:26:02.254Z,84.9
2023-04-23T08:27:18.495Z,84.3
2023-04-23T08:28:34.719Z,83.7
2023-04-23T08:29:50.965Z,83.6
2023-04-23T08:31:07.210Z,83
2023-04-23T08:32:22.468Z,82.5
2023-04-23T08:33:38.691Z,82.2
2023-04-23T08:36:11.184Z,81.5
2023-04-23T08:37:27.423Z,82.1
2023-04-23T08:38:43.655Z,81.8
2023-04-23T08:41:16.150Z,81.8
2023-04-23T08:42:31.403Z,81.8
2023-04-23T08:43:46.648Z,81.8
2023-04-23T08:45:02.897Z,81.9
2023-04-23T08:46:19.127Z,81.5
2023-04-23T08:47:34.396Z,81.6
2023-04-23T08:48:50.645Z,82.3
2023-04-23T08:50:06.882Z,82.8
2023-04-23T08:51:23.116Z,83.1
2023-04-23T08:52:39.368Z,83.7
2023-04-23T08:53:55.590Z,83.7
2023-04-23T08:55:11.839Z,84
2023-04-23T08:56:27.095Z,84.3
2023-04-23T08:57:42.366Z,83.8
2023-04-23T08:58:58.599Z,83.8
2023-04-23T09:00:14.844Z,84.3
2023-04-23T09:01:31.077Z,83.8
2023-04-23T09:02:47.319Z,83.1
2023-04-23T09:04:03.553Z,82.1
2023-04-23T09:05:19.790Z,82
2023-04-23T09:06:36.046Z,81.3
2023-04-23T09:07:52.277Z,81.9
2023-04-23T09:09:08.523Z,81.3
2023-04-23T09:10:24.750Z,81.6
2023-04-23T09:11:40.991Z,82
2023-04-23T09:12:57.238Z,81.5
2023-04-23T09:14:12.504Z,81.3
2023-04-23T09:15:28.743Z,81.5
2023-04-23T09:16:44.977Z,80.2
2023-04-23T09:18:01.221Z,79.5
2023-04-23T09:19:17.444Z,79
2023-04-23T09:20:33.685Z,78.6
2023-04-23T09:21:49.947Z,76.1
2023-04-23T09:23:06.169Z,75.5
2023-04-23T09:24:22.413Z,73.7
2023-04-23T09:25:38.662Z,72.9
2023-04-23T09:26:54.906Z,72.6
2023-04-23T09:28:11.146Z,72.3
2023-04-23T09:29:27.381Z,73
2023-04-23T09:30:42.639Z,72
2023-04-23T09:31:58.875Z,72.7
2023-04-23T09:33:15.114Z,72.2
2023-04-23T09:34:31.349Z,71.8
2023-04-23T09:35:47.594Z,72.3
2023-04-23T09:37:03.832Z,72.7
2023-04-23T09:38:20.087Z,71.6
2023-04-23T09:39:36.325Z,70.8
2023-04-23T09:40:52.551Z,70.9
2023-04-23T09:42:08.792Z,72.2
2023-04-23T09:43:25.046Z,72
2023-04-23T09:44:41.275Z,71.1
2023-04-23T09:45:57.512Z,72
2023-04-23T09:47:12.778Z,71.4
2023-04-23T09:48:29.010Z,71
2023-04-23T09:49:45.246Z,70.3
2023-04-23T09:51:01.492Z,71.1
2023-04-23T09:52:17.734Z,72.2
2023-04-23T09:53:33.975Z,70.4
2023-04-23T09:54:50.215Z,68.9
2023-04-23T09:56:06.451Z,68.4
2023-04-23T09:57:22.695Z,68.1
2023-04-23T09:58:38.940Z,67.7
2023-04-23T09:59:55.162Z,67.5
2023-04-23T10:01:11.402Z,67
2023-04-23T10:02:27.659Z,67.3
2023-04-23T10:03:42.912Z,66.4
2023-04-23T10:04:59.153Z,66.5
2023-04-23T10:06:15.386Z,66.6
2023-04-23T10:07:31.632Z,66.8
2023-04-23T10:08:47.865Z,68
2023-04-23T10:10:04.099Z,68.7
2023-04-23T10:11:20.343Z,69.7
2023-04-23T10:12:36.586Z,69.2
2023-04-23T10:13:52.822Z,67.7
2023-04-23T10:15:09.060Z,68.1
2023-04-23T10:16:25.309Z,68.5
2023-04-23T10:17:41.551Z,66.8
2023-04-23T10:18:57.786Z,65
2023-04-23T10:20:13.049Z,65
2023-04-23T10:21:29.289Z,64.3
2023-04-23T10:22:45.526Z,63.3
2023-04-23T10:24:01.751Z,63.9
2023-04-23T10:25:18.006Z,64.4
2023-04-23T10:26:34.246Z,63.4
2023-04-23T10:27:50.479Z,63.2
2023-04-23T10:29:06.712Z,62.3
2023-04-23T10:30:22.964Z,61.5
2023-04-23T10:31:39.196Z,62.6
2023-04-23T10:32:55.439Z,61.7
2023-04-23T10:35:27.924Z,62
2023-04-23T10:36:43.175Z,61.2
2023-04-23T10:37:59.420Z,61.1
2023-04-23T10:39:15.665Z,61.7
2023-04-23T10:40:31.905Z,61.4
2023-04-23T10:41:48.150Z,60.3
2023-04-23T10:43:04.372Z,60.6
2023-04-23T10:44:20.616Z,61.4
2023-04-23T10:45:36.868Z,61.1
2023-04-23T10:46:53.109Z,62.4
2023-04-23T10:48:09.344Z,59.5
2023-04-23T10:49:25.586Z,60
2023-04-23T10:50:41.825Z,59.9
2023-04-23T10:53:14.299Z,60
2023-04-23T10:54:29.555Z,59.3
2023-04-23T10:55:45.789Z,59.7
2023-04-23T10:57:02.033Z,59.5
2023-04-23T10:58:18.284Z,59.4
2023-04-23T10:59:34.509Z,59
2023-04-23T11:00:50.767Z,59.3
2023-04-23T11:02:06.999Z,59.5
2023-04-23T11:03:23.236Z,60.3
2023-04-23T11:04:39.485Z,59.3
2023-04-23T11:05:55.725Z,59.5
2023-04-23T11:07:11.959Z,59.5
2023-04-23T11:08:28.203Z,60.8
2023-04-23T11:09:44.428Z,60.7
2023-04-23T11:10:59.697Z,60.5
2023-04-23T11:12:15.931Z,59.5
2023-04-23T11:13:32.182Z,58.3
2023-04-23T11:14:48.416Z,57.5
2023-04-23T11:16:04.648Z,56.7
2023-04-23T11:17:20.891Z,59
2023-04-23T11:18:37.136Z,56.8
2023-04-23T11:19:53.366Z,57.4
2023-04-23T11:21:09.615Z,56.7
2023-04-23T11:22:25.849Z,56.8
2023-04-23T11:23:42.093Z,57.7
2023-04-23T11:24:58.336Z,57.4
2023-04-23T11:26:14.565Z,56.9
2023-04-23T11:28:46.071Z,57.9
2023-04-23T11:30:02.317Z,56.1
2023-04-23T11:31:18.539Z,55.8
2023-04-23T11:32:34.777Z,57.1
2023-04-23T11:33:51.018Z,57.4
2023-04-23T11:35:07.258Z,57.1
2023-04-23T11:36:23.514Z,56.3
2023-04-23T11:37:39.752Z,56.8
2023-04-23T11:38:55.980Z,57.7
2023-04-23T11:40:12.216Z,57.7
2023-04-23T11:41:28.475Z,58
2023-04-23T11:42:44.707Z,58.3
2023-04-23T11:43:59.963Z,56.9
2023-04-23T11:45:16.211Z,56.9
2023-04-23T11:46:32.451Z,57
2023-04-23T11:47:48.671Z,58.1
2023-04-23T11:49:04.924Z,57.2
2023-04-23T11:51:37.411Z,55.9
2023-04-23T11:52:53.646Z,55.8
2023-04-23T11:54:09.881Z,55.9
2023-04-23T11:55:26.122Z,55.3
2023-04-23T11:56:42.361Z,53.9
2023-04-23T11:57:58.612Z,55.7
2023-04-23T11:59:14.830Z,56.2
2023-04-23T12:00:30.090Z,56.6
2023-04-23T12:01:46.336Z,57.2
2023-04-23T12:03:02.580Z,57.6
2023-04-23T12:04:18.827Z,57.1
2023-04-23T12:05:35.063Z,56.8
2023-04-23T12:06:51.294Z,56
2023-04-23T12:08:07.543Z,55.3
2023-04-23T12:09:23.777Z,55.8
2023-04-23T12:10:40.024Z,56
2023-04-23T12:11:56.254Z,56.4
2023-04-23T12:13:12.486Z,55.1
2023-04-23T12:14:28.734Z,54.7
2023-04-23T12:15:44.973Z,53.3
2023-04-23T12:17:00.224Z,53.1
2023-04-23T12:18:16.468Z,51.8
2023-04-23T12:19:32.707Z,51.4
2023-04-23T12:20:48.956Z,53.6
2023-04-23T12:22:05.190Z,54.1
2023-04-23T12:23:21.439Z,53.3
2023-04-23T12:24:37.661Z,53.3
2023-04-23T12:25:53.916Z,52.9
2023-04-23T12:27:10.145Z,53.7
2023-04-23T12:29:42.638Z,52.2
2023-04-23T12:30:58.864Z,53.1
2023-04-23T12:32:15.104Z,52
2023-04-23T12:33:30.367Z,52.7
2023-04-23T12:34:46.596Z,54.1
2023-04-23T12:37:19.077Z,52.7
2023-04-23T12:38:35.329Z,52.3
2023-04-23T12:39:51.559Z,52.6
2023-04-23T12:41:07.813Z,52
2023-04-23T12:42:24.050Z,51.7
2023-04-23T12:43:40.279Z,51.9
2023-04-23T12:44:56.530Z,52.4
2023-04-23T12:46:12.770Z,52.9
2023-04-23T12:47:29.010Z,50.3
2023-04-23T12:48:45.233Z,51.5
2023-04-23T12:50:00.497Z,51.8
2023-04-23T12:52:32.992Z,50.8
2023-04-23T12:53:48.250Z,51.6
2023-04-23T12:55:03.507Z,52.7
2023-04-23T12:56:19.737Z,52
2023-04-23T12:57:35.970Z,51.5
2023-04-23T12:58:52.210Z,52
2023-04-23T13:00:08.456Z,49.6
2023-04-23T13:01:24.686Z,49.4
2023-04-23T13:02:39.961Z,48.3
2023-04-23T13:03:56.190Z,47.9
2023-04-23T13:05:12.437Z,49
2023-04-23T13:06:28.686Z,51.5
2023-04-23T13:07:43.940Z,51.2
2023-04-23T13:08:59.187Z,51.7
2023-04-23T13:10:15.438Z,50.6
2023-04-23T13:11:31.669Z,49.8
2023-04-23T13:12:47.909Z,48.1
2023-04-23T13:15:20.385Z,50.6
2023-04-23T13:16:36.623Z,49.8
2023-04-23T13:17:52.866Z,49.6
2023-04-23T13:19:09.102Z,49.7
2023-04-23T13:20:25.354Z,49
2023-04-23T13:22:57.839Z,49.4
2023-04-23T13:24:13.090Z,48.5
2023-04-23T13:25:28.339Z,49.1
2023-04-23T13:26:44.584Z,49.5
2023-04-23T13:28:00.830Z,50.3
2023-04-23T13:29:17.064Z,50.1
2023-04-23T13:30:33.317Z,48.6
2023-04-23T13:31:49.542Z,48.7
2023-04-23T13:33:05.797Z,49.2
2023-04-23T13:34:22.028Z,49.2
2023-04-23T13:35:38.276Z,48
2023-04-23T13:38:10.749Z,47.3
2023-04-23T13:39:26.996Z,46.9
2023-04-23T13:40:43.229Z,47.1
2023-04-23T13:41:58.493Z,46.9
2023-04-23T13:43:14.728Z,47.9
2023-04-23T13:44:30.959Z,49.1
2023-04-23T13:45:47.206Z,49.7
2023-04-23T13:47:03.442Z,48.4
2023-04-23T13:48:19.692Z,48.7
2023-04-23T13:49:35.932Z,48.2
2023-04-23T13:50:52.153Z,47
2023-04-23T13:52:07.414Z,46.4
2023-04-23T13:53:23.673Z,46.9
2023-04-23T13:54:38.926Z,47.1
2023-04-23T13:55:55.155Z,48.8
2023-04-23T13:57:11.403Z,48.4
2023-04-23T13:58:27.632Z,48.5
2023-04-23T14:01:00.125Z,48.2
2023-04-23T14:02:16.363Z,46.9
2023-04-23T14:03:32.602Z,48.4
2023-04-23T14:04:48.836Z,47.7
2023-04-23T14:06:05.089Z,48.4
2023-04-23T14:07:21.313Z,49.4
2023-04-23T14:08:37.560Z,48.2
2023-04-23T14:09:53.795Z,48.1
2023-04-23T14:11:09.050Z,47.5
2023-04-23T14:12:25.298Z,47.9
2023-04-23T14:13:41.532Z,48.3
2023-04-23T14:14:57.769Z,47.8
2023-04-23T14:16:14.020Z,49.2
2023-04-23T14:17:30.250Z,48.5
2023-04-23T14:18:46.497Z,48.5
2023-04-23T14:20:02.734Z,48.9
2023-04-23T14:21:18.977Z,48.6
2023-04-23T14:22:35.204Z,48.9
2023-04-23T14:23:51.445Z,48
2023-04-23T14:25:07.685Z,48.3
2023-04-23T14:26:23.934Z,48.8
2023-04-23T14:27:39.187Z,47.9
2023-04-23T14:28:55.431Z,46.7
2023-04-23T14:32:44.149Z,46.9
2023-04-23T14:34:00.391Z,46.9
2023-04-23T14:35:16.620Z,48
2023-04-23T14:36:32.884Z,47.3
2023-04-23T14:37:49.099Z,46.5
2023-04-23T14:39:05.346Z,47
2023-04-23T14:40:21.586Z,47.3
2023-04-23T14:41:37.835Z,46.6
2023-04-23T14:42:54.068Z,47.5
2023-04-23T14:44:10.312Z,48.7
2023-04-23T14:45:25.561Z,49.5
2023-04-23T14:46:41.806Z,48.1
2023-04-23T14:47:58.041Z,47.9
2023-04-23T14:49:14.279Z,47.9
2023-04-23T14:50:30.530Z,48.7
2023-04-23T14:51:46.761Z,48.4
2023-04-23T14:53:02.992Z,47
2023-04-23T14:54:19.231Z,48.3
2023-04-23T14:55:35.479Z,47.1
2023-04-23T14:56:51.725Z,46.8
2023-04-23T14:58:07.969Z,47.6
2023-04-23T14:59:24.209Z,47
2023-04-23T15:00:40.450Z,47
2023-04-23T15:01:56.683Z,46.7
2023-04-23T15:03:12.926Z,46.3
2023-04-23T15:04:28.182Z,47.6
2023-04-23T15:05:44.414Z,46.9
2023-04-23T15:07:00.666Z,47.4
2023-04-23T15:09:33.128Z,46.4
2023-04-23T15:10:49.378Z,46.9
2023-04-23T15:12:05.612Z,47.5
2023-04-23T15:13:21.854Z,47.4
2023-04-23T15:14:38.099Z,48.5
2023-04-23T15:15:54.324Z,47.4
2023-04-23T15:17:10.574Z,48.3
2023-04-23T15:19:43.055Z,47.6
2023-04-23T15:20:58.302Z,47.7
2023-04-23T15:22:14.557Z,46.9
2023-04-23T15:23:30.785Z,46.9
2023-04-23T15:24:47.033Z,47.8
2023-04-23T15:26:03.279Z,47.6
2023-04-23T15:27:19.516Z,48.4
2023-04-23T15:28:35.741Z,49.9
2023-04-23T15:29:51.998Z,49
2023-04-23T15:31:08.230Z,49.6
2023-04-23T15:32:24.471Z,48.3
2023-04-23T15:33:40.703Z,49.2
2023-04-23T15:34:56.946Z,47.6
2023-04-23T15:36:13.183Z,48.2
2023-04-23T15:37:28.450Z,47.7
2023-04-23T15:38:44.691Z,47.8
2023-04-23T15:40:00.924Z,47.9
2023-04-23T15:41:17.159Z,47.3
2023-04-23T15:42:33.408Z,48.9
2023-04-23T15:43:49.647Z,48.4
2023-04-23T15:45:05.883Z,47.9
2023-04-23T15:46:22.124Z,48
2023-04-23T15:47:38.372Z,47
2023-04-23T15:48:54.601Z,46.9
2023-04-23T15:50:10.831Z,47.1
2023-04-23T15:51:27.000Z,46.8
2023-04-23T15:52:43.325Z,47
2023-04-23T15:53:58.571Z,47.5
2023-04-23T15:55:14.813Z,49.2
2023-04-23T15:56:31.051Z,47.4
2023-04-23T15:57:47.303Z,46.9
2023-04-23T15:59:03.541Z,47.2
2023-04-23T16:00:19.774Z,47.2
2023-04-23T16:01:36.009Z,47.2
2023-04-23T16:02:52.259Z,46.9
2023-04-23T16:04:08.500Z,46.8
2023-04-23T16:05:24.742Z,46.3
2023-04-23T16:06:40.982Z,45.8
2023-04-23T16:07:57.219Z,45.9
2023-04-23T16:09:13.445Z,45.7
2023-04-23T16:10:28.702Z,46.9
2023-04-23T16:11:44.950Z,47.2
2023-04-23T16:13:01.182Z,48.8
2023-04-23T16:14:17.423Z,46.8
2023-04-23T16:15:33.671Z,47.8
2023-04-23T16:18:06.143Z,46
2023-04-23T16:19:22.385Z,46.1
2023-04-23T16:20:38.628Z,47.3
2023-04-23T16:21:54.872Z,47
2023-04-23T16:23:11.102Z,46.2
2023-04-23T16:24:27.356Z,45.2
2023-04-23T16:25:43.599Z,45.9
2023-04-23T16:26:58.842Z,46
2023-04-23T16:28:15.085Z,46
2023-04-23T16:29:31.333Z,45.8
2023-04-23T16:30:47.555Z,45.5
2023-04-23T16:33:20.044Z,44.4
2023-04-23T16:34:36.286Z,44.6
2023-04-23T16:35:52.521Z,45.8
2023-04-23T16:37:08.767Z,45.5
2023-04-23T16:38:25.006Z,44.6
2023-04-23T16:39:41.251Z,43.7
2023-04-23T16:40:57.483Z,43.5
2023-04-23T16:42:13.716Z,43.8
2023-04-23T16:43:28.988Z,43.8
2023-04-23T16:44:45.228Z,44.1
2023-04-23T16:46:01.458Z,43.4
2023-04-23T16:47:17.706Z,43.9
2023-04-23T16:48:33.932Z,43.2
2023-04-23T16:49:50.178Z,42.7
2023-04-23T16:51:06.408Z,41.9
2023-04-23T16:52:22.659Z,42.6
2023-04-23T16:53:38.896Z,42
2023-04-23T16:54:55.145Z,42
2023-04-23T16:56:11.386Z,41
2023-04-23T16:57:27.627Z,41
2023-04-23T16:58:43.000Z,41.8
2023-04-23T16:59:59.122Z,40.8
2023-04-23T17:01:15.350Z,41.1
2023-04-23T17:02:31.587Z,41.4
2023-04-23T17:03:47.840Z,40.5
2023-04-23T17:05:04.081Z,40.4
2023-04-23T17:06:20.320Z,41.2
2023-04-23T17:07:36.562Z,40.6
2023-04-23T17:08:52.787Z,40.4
2023-04-23T17:10:09.041Z,41
2023-04-23T17:11:25.278Z,40.4
2023-04-23T17:12:41.521Z,41.2
2023-04-23T17:13:57.761Z,41.6
2023-04-23T17:15:13.987Z,41.9
2023-04-23T17:16:29.257Z,42.1
2023-04-23T17:19:00.742Z,43
2023-04-23T17:20:16.007Z,42.9
2023-04-23T17:21:32.247Z,44
2023-04-23T17:22:48.499Z,43.8
2023-04-23T17:24:04.730Z,44.6
2023-04-23T17:25:20.964Z,44.1
2023-04-23T17:27:53.461Z,44.7
2023-04-23T17:29:09.698Z,44.6
2023-04-23T17:30:25.940Z,45.3
2023-04-23T17:31:42.163Z,45.3
2023-04-23T17:32:58.401Z,45.8
2023-04-23T17:34:14.652Z,46.1
2023-04-23T17:35:30.900Z,45.7
2023-04-23T17:36:46.147Z,45.9
2023-04-23T17:38:02.395Z,46.7
2023-04-23T17:39:18.637Z,46.7
2023-04-23T17:41:51.099Z,47.4
2023-04-23T17:43:06.377Z,47.8
2023-04-23T17:44:21.619Z,48.4
2023-04-23T17:45:37.873Z,48.9
2023-04-23T17:46:54.101Z,49.6